ADDS METAR Data INFO
IDs: Format: Raw Decoded Include TAF

Data at: 0052 UTC 22 Oct 2017

KDHN 212353Z 05004KT 10SM FEW050 SCT060 23/16 A3019 RMK AO2 SLP220 T02330161 10278 20233 53004
KDHN 212253Z 08004KT 10SM CLR 26/16 A3018 RMK AO2 SLP216 T02560156
KDHN 212153Z 09006KT 10SM CLR 27/16 A3018 RMK AO2 SLP215 T02720156
KDHN 212053Z 10005KT 10SM SCT055 27/15 A3018 RMK AO2 SLP215 T02720150 56010
KDHN 211953Z 09006KT 10SM SCT045 BKN055 27/17 A3019 RMK AO2 SLP217 T02720172
KDHN 211853Z 12006KT 10SM SCT041 BKN050 27/18 A3020 RMK AO2 SLP220 T02720178
KDHN 211753Z 13009KT 10SM FEW039 FEW047 27/18 A3021 RMK AO2 SLP226 T02670178 10283 20172 58010
KDHN 211653Z 09010KT 10SM CLR 27/19 A3023 RMK AO2 SLP233 T02670189
KDHN 211553Z 11007KT 10SM CLR 24/19 A3024 RMK AO2 SLP237 T02440189
KDHN 211453Z 13012KT 10SM CLR 24/18 A3025 RMK AO2 SLP238 T02390178 51009
KDHN 211353Z 10010KT 10SM CLR 21/17 A3024 RMK AO2 SLP235 T02110167
KDHN 211253Z 09007KT 10SM CLR 19/17 A3024 RMK AO2 SLP236 T01890167
KDHN 211153Z AUTO 09005KT 10SM CLR 17/16 A3022 RMK AO2 SLP230 T01720161 10183 20172 53012
KDHN 211053Z AUTO 09005KT 10SM CLR 17/17 A3021 RMK AO2 SLP225 T01720167
KDHN 210953Z AUTO 09006KT 10SM CLR 18/17 A3019 RMK AO2 SLP217 T01780167
KDHN 210853Z AUTO 09005KT 10SM CLR 18/16 A3018 RMK AO2 SLP216 T01780156 58002
KDHN 210753Z AUTO 09005KT 10SM CLR 18/14 A3018 RMK AO2 SLP216 T01780144
KDHN 210653Z AUTO 10004KT 10SM CLR 18/13 A3019 RMK AO2 SLP218 T01830128
KDHN 210553Z AUTO 09005KT 10SM CLR 18/11 A3019 RMK AO2 SLP217 T01830111 10200 20161 58002
KDHN 210453Z AUTO 10004KT 10SM CLR 19/09 A3019 RMK AO2 SLP219 T01940089 402890133
KDHN 210353Z AUTO 09005KT 10SM CLR 19/10 A3020 RMK AO2 SLP223 T01940100
KDHN 210253Z AUTO 08004KT 10SM CLR 18/11 A3019 RMK AO2 SLP220 T01830111 53010
KDHN 210153Z AUTO 05004KT 10SM CLR 16/13 A3018 RMK AO2 SLP218 T01610128
KDHN 210053Z 05003KT 10SM CLR 17/13 A3017 RMK AO2 SLP214 T01720133
KDHN 202353Z 00000KT 10SM CLR 19/13 A3016 RMK AO2 SLP211 T01890133 10289 20189 53003
KDHN 202253Z 00000KT 10SM CLR 24/11 A3015 RMK AO2 SLP206 T02390106
KDHN 202153Z 08006KT 10SM CLR 27/09 A3015 RMK AO2 SLP206 T02720094
KDHN 202053Z 07006KT 10SM CLR 28/12 A3015 RMK AO2 SLP207 T02830117 56021
KDHN 201953Z 10SM CLR 29/12 A3017 RMK AO2 SLP210 T02890122
KDHN 201853Z 02006KT 10SM CLR 28/11 A3018 RMK AO2 SLP216 T02830111
KDHN 201753Z 03006KT 10SM CLR 28/13 A3022 RMK AO2 SLP228 T02780128 10278 20133 58019
KDHN 201653Z 04006KT 10SM CLR 27/13 A3025 RMK AO2 SLP238 T02670133
KDHN 201553Z 06008KT 10SM CLR 25/14 A3027 RMK AO2 SLP244 T02500139
KDHN 201453Z VRB06KT 10SM CLR 23/14 A3027 RMK AO2 SLP247 T02280144 51007
KDHN 201353Z 07005KT 10SM CLR 19/14 A3027 RMK AO2 SLP247 T01940144
KDHN 201253Z 05005KT 10SM CLR 16/12 A3026 RMK AO2 SLP245 T01560122